Hlavní strana
METAR-TAF:

METAR-TAF

Letiště :

Lanzarote, Španělsko

zeměpisná šířka: 28-57N, zeměpisná délka: 013-36W, výška: 14 m

Aktuální stav počasí

Zpráva byla vytvořena před 24 minutami, v 13:00 UTC
Východoseverovýchodní vítr 16 kt
Teplota 21°C
Vlhkost vzduchu 64%
Tlak 1025 hPa
Viditelnost 10 km a více
Skoro jasno ve výšce 2000 ft

METAR: GCRR 191300Z 06016KT 9999 FEW020 21/14 Q1025

Čas: 13:24 (13:24 UTC)

Předpověď počasí

Zpráva byla vytvořena před 5 hodinami a 24 minutami, v 08:00 UTC
Předpověď platná od 19 v 09 UTC do 20 v 09 UTC
Severovýchodní vítr 14 kt
Viditelnost 10 km a více
Skoro jasno ve výšce 1500 ft

TAF: GCRR 190800Z 1909/2009 04014KT 9999 FEW015 TX22/1915Z TN13/2006Z

Stav a předpovědi počasí z více než 4 000 letišť (zprávy METAR a TAF).

Červené a žluté tečky na mapě představují dostupné meteorologické stanice.

Když kurzor umístíte na tečku, zobrazí se název stanice.

Pak kliknutím zobrazíte stav a předpověď počasí.

Chcete-li změnit mapu, kliknutím na zelené tlačítko se znaménkem +mapu přiblížíte, kliknutím na zelené tlačítko se znaménkem – mapu oddálíte a kliknutím na zelené šipky přejdete na sousední mapy.


METAR-TAF: